sensor_id;sensor_type;location;lat;lon;timestamp;temperature;humidity
17178;DHT22;8704;52.006;4.374;2023-01-25T00:00:50;1.10;99.90
17178;DHT22;8704;52.006;4.374;2023-01-25T00:03:20;1.90;99.90
17178;DHT22;8704;52.006;4.374;2023-01-25T00:05:48;1.10;99.90
17178;DHT22;8704;52.006;4.374;2023-01-25T00:08:24;1.00;99.90
17178;DHT22;8704;52.006;4.374;2023-01-25T00:10:52;1.00;99.90
17178;DHT22;8704;52.006;4.374;2023-01-25T00:13:23;1.00;99.90
17178;DHT22;8704;52.006;4.374;2023-01-25T00:15:51;1.00;99.90
17178;DHT22;8704;52.006;4.374;2023-01-25T00:18:21;1.00;99.90
17178;DHT22;8704;52.006;4.374;2023-01-25T00:20:49;1.00;99.90
17178;DHT22;8704;52.006;4.374;2023-01-25T00:23:17;1.00;99.90
17178;DHT22;8704;52.006;4.374;2023-01-25T00:25:45;1.00;99.90
17178;DHT22;8704;52.006;4.374;2023-01-25T00:28:13;1.00;99.90
17178;DHT22;8704;52.006;4.374;2023-01-25T00:30:41;1.00;99.90
17178;DHT22;8704;52.006;4.374;2023-01-25T00:33:32;1.70;99.90
17178;DHT22;8704;52.006;4.374;2023-01-25T00:36:01;1.00;99.90
17178;DHT22;8704;52.006;4.374;2023-01-25T00:38:33;1.00;99.90
17178;DHT22;8704;52.006;4.374;2023-01-25T00:41:01;1.00;99.90
17178;DHT22;8704;52.006;4.374;2023-01-25T00:43:29;0.90;99.90
17178;DHT22;8704;52.006;4.374;2023-01-25T00:45:59;1.70;99.90
17178;DHT22;8704;52.006;4.374;2023-01-25T00:48:29;2.00;99.90
17178;DHT22;8704;52.006;4.374;2023-01-25T00:50:59;1.00;99.90
17178;DHT22;8704;52.006;4.374;2023-01-25T00:53:27;1.90;99.90
17178;DHT22;8704;52.006;4.374;2023-01-25T00:55:55;1.00;99.90
17178;DHT22;8704;52.006;4.374;2023-01-25T00:58:23;1.00;99.90
17178;DHT22;8704;52.006;4.374;2023-01-25T01:00:52;1.00;99.90
17178;DHT22;8704;52.006;4.374;2023-01-25T01:03:21;1.00;99.90
17178;DHT22;8704;52.006;4.374;2023-01-25T01:06:03;1.00;99.90
17178;DHT22;8704;52.006;4.374;2023-01-25T01:08:32;1.00;99.90
17178;DHT22;8704;52.006;4.374;2023-01-25T01:11:03;1.00;99.90
17178;DHT22;8704;52.006;4.374;2023-01-25T01:13:32;1.00;99.90
17178;DHT22;8704;52.006;4.374;2023-01-25T01:16:02;1.70;99.90
17178;DHT22;8704;52.006;4.374;2023-01-25T01:18:33;1.00;99.90
17178;DHT22;8704;52.006;4.374;2023-01-25T01:21:05;1.40;99.90
17178;DHT22;8704;52.006;4.374;2023-01-25T01:23:34;0.90;99.90
17178;DHT22;8704;52.006;4.374;2023-01-25T01:26:04;0.90;99.90
17178;DHT22;8704;52.006;4.374;2023-01-25T01:28:33;0.90;99.90
17178;DHT22;8704;52.006;4.374;2023-01-25T01:31:07;0.90;99.90
17178;DHT22;8704;52.006;4.374;2023-01-25T01:33:35;0.90;99.90
17178;DHT22;8704;52.006;4.374;2023-01-25T01:36:10;0.80;99.90
17178;DHT22;8704;52.006;4.374;2023-01-25T01:38:39;0.80;99.90
17178;DHT22;8704;52.006;4.374;2023-01-25T01:41:09;1.60;99.90
17178;DHT22;8704;52.006;4.374;2023-01-25T01:43:37;0.90;99.90
17178;DHT22;8704;52.006;4.374;2023-01-25T01:46:09;0.80;99.90
17178;DHT22;8704;52.006;4.374;2023-01-25T01:48:42;0.90;99.90
17178;DHT22;8704;52.006;4.374;2023-01-25T01:51:17;1.00;99.90
17178;DHT22;8704;52.006;4.374;2023-01-25T01:53:50;1.70;99.90
17178;DHT22;8704;52.006;4.374;2023-01-25T01:56:25;0.90;99.90
17178;DHT22;8704;52.006;4.374;2023-01-25T01:58:55;0.80;99.90
17178;DHT22;8704;52.006;4.374;2023-01-25T02:01:25;1.70;99.90
17178;DHT22;8704;52.006;4.374;2023-01-25T02:03:54;0.90;99.90
17178;DHT22;8704;52.006;4.374;2023-01-25T02:06:31;0.80;99.90
17178;DHT22;8704;52.006;4.374;2023-01-25T02:09:02;1.40;99.90
17178;DHT22;8704;52.006;4.374;2023-01-25T02:11:31;0.80;99.90
17178;DHT22;8704;52.006;4.374;2023-01-25T02:14:01;0.80;99.90
17178;DHT22;8704;52.006;4.374;2023-01-25T02:16:29;0.80;99.90
17178;DHT22;8704;52.006;4.374;2023-01-25T02:18:58;0.80;99.90
17178;DHT22;8704;52.006;4.374;2023-01-25T02:21:36;0.80;99.90
17178;DHT22;8704;52.006;4.374;2023-01-25T02:24:10;0.80;99.90
17178;DHT22;8704;52.006;4.374;2023-01-25T02:26:40;0.80;99.90
17178;DHT22;8704;52.006;4.374;2023-01-25T02:29:09;0.90;99.90
17178;DHT22;8704;52.006;4.374;2023-01-25T02:31:38;1.30;99.90
17178;DHT22;8704;52.006;4.374;2023-01-25T02:34:06;0.80;99.90
17178;DHT22;8704;52.006;4.374;2023-01-25T02:36:35;1.40;99.90
17178;DHT22;8704;52.006;4.374;2023-01-25T02:39:07;0.70;99.90
17178;DHT22;8704;52.006;4.374;2023-01-25T02:41:37;0.90;99.90
17178;DHT22;8704;52.006;4.374;2023-01-25T02:44:10;0.70;99.90
17178;DHT22;8704;52.006;4.374;2023-01-25T02:46:39;0.70;99.90
17178;DHT22;8704;52.006;4.374;2023-01-25T02:49:08;0.70;99.90
17178;DHT22;8704;52.006;4.374;2023-01-25T02:51:38;1.30;99.90
17178;DHT22;8704;52.006;4.374;2023-01-25T02:54:09;0.70;99.90
17178;DHT22;8704;52.006;4.374;2023-01-25T02:56:38;0.70;99.90
17178;DHT22;8704;52.006;4.374;2023-01-25T02:59:09;0.70;99.90
17178;DHT22;8704;52.006;4.374;2023-01-25T03:01:41;0.70;99.90
17178;DHT22;8704;52.006;4.374;2023-01-25T03:04:10;0.70;99.90
17178;DHT22;8704;52.006;4.374;2023-01-25T03:06:39;0.70;99.90
17178;DHT22;8704;52.006;4.374;2023-01-25T03:09:08;0.70;99.90
17178;DHT22;8704;52.006;4.374;2023-01-25T03:11:37;0.60;99.90
17178;DHT22;8704;52.006;4.374;2023-01-25T03:14:05;0.60;99.90
17178;DHT22;8704;52.006;4.374;2023-01-25T03:16:34;1.50;99.90
17178;DHT22;8704;52.006;4.374;2023-01-25T03:19:02;0.80;99.90
17178;DHT22;8704;52.006;4.374;2023-01-25T03:21:30;0.60;99.90
17178;DHT22;8704;52.006;4.374;2023-01-25T03:24:00;0.60;99.90
17178;DHT22;8704;52.006;4.374;2023-01-25T03:26:28;0.60;99.90
17178;DHT22;8704;52.006;4.374;2023-01-25T03:28:56;1.10;99.90
17178;DHT22;8704;52.006;4.374;2023-01-25T03:31:24;0.70;99.90
17178;DHT22;8704;52.006;4.374;2023-01-25T03:33:54;1.70;99.90
17178;DHT22;8704;52.006;4.374;2023-01-25T03:36:22;1.20;99.90
17178;DHT22;8704;52.006;4.374;2023-01-25T03:38:50;0.60;99.90
17178;DHT22;8704;52.006;4.374;2023-01-25T03:41:19;0.60;99.90
17178;DHT22;8704;52.006;4.374;2023-01-25T03:43:47;0.60;99.90
17178;DHT22;8704;52.006;4.374;2023-01-25T03:46:15;0.60;99.90
17178;DHT22;8704;52.006;4.374;2023-01-25T03:48:43;0.60;99.90
17178;DHT22;8704;52.006;4.374;2023-01-25T03:51:12;0.60;99.90
17178;DHT22;8704;52.006;4.374;2023-01-25T03:53:40;0.60;99.90
17178;DHT22;8704;52.006;4.374;2023-01-25T03:56:10;0.70;99.90
17178;DHT22;8704;52.006;4.374;2023-01-25T03:58:43;1.50;99.90
17178;DHT22;8704;52.006;4.374;2023-01-25T04:01:11;1.00;99.90
17178;DHT22;8704;52.006;4.374;2023-01-25T04:03:39;0.60;99.90
17178;DHT22;8704;52.006;4.374;2023-01-25T04:06:08;0.60;99.90
17178;DHT22;8704;52.006;4.374;2023-01-25T04:08:37;0.60;99.90
17178;DHT22;8704;52.006;4.374;2023-01-25T04:11:07;0.60;99.90
17178;DHT22;8704;52.006;4.374;2023-01-25T04:13:37;0.60;99.90
17178;DHT22;8704;52.006;4.374;2023-01-25T04:16:06;0.60;99.90
17178;DHT22;8704;52.006;4.374;2023-01-25T04:18:35;0.60;99.90
17178;DHT22;8704;52.006;4.374;2023-01-25T04:21:03;1.30;99.90
17178;DHT22;8704;52.006;4.374;2023-01-25T04:23:32;0.50;99.90
17178;DHT22;8704;52.006;4.374;2023-01-25T04:26:03;0.60;99.90
17178;DHT22;8704;52.006;4.374;2023-01-25T04:28:33;0.60;99.90
17178;DHT22;8704;52.006;4.374;2023-01-25T04:31:02;1.10;99.90
17178;DHT22;8704;52.006;4.374;2023-01-25T04:33:32;0.50;99.90
17178;DHT22;8704;52.006;4.374;2023-01-25T04:36:00;0.60;99.90
17178;DHT22;8704;52.006;4.374;2023-01-25T04:38:28;0.50;99.90
17178;DHT22;8704;52.006;4.374;2023-01-25T04:40:57;0.50;99.90
17178;DHT22;8704;52.006;4.374;2023-01-25T04:43:26;0.50;99.90
17178;DHT22;8704;52.006;4.374;2023-01-25T04:45:55;0.50;99.90
17178;DHT22;8704;52.006;4.374;2023-01-25T04:48:23;0.50;92.00
17178;DHT22;8704;52.006;4.374;2023-01-25T04:50:52;0.50;80.70
17178;DHT22;8704;52.006;4.374;2023-01-25T04:53:20;0.50;68.80
17178;DHT22;8704;52.006;4.374;2023-01-25T04:55:48;0.40;66.30
17178;DHT22;8704;52.006;4.374;2023-01-25T04:58:16;0.50;96.90
17178;DHT22;8704;52.006;4.374;2023-01-25T05:00:47;0.50;74.50
17178;DHT22;8704;52.006;4.374;2023-01-25T05:03:15;1.50;69.00
17178;DHT22;8704;52.006;4.374;2023-01-25T05:05:45;0.50;52.40
17178;DHT22;8704;52.006;4.374;2023-01-25T05:08:14;0.50;63.20
17178;DHT22;8704;52.006;4.374;2023-01-25T05:10:43;0.40;53.10
17178;DHT22;8704;52.006;4.374;2023-01-25T05:13:11;0.40;41.30
17178;DHT22;8704;52.006;4.374;2023-01-25T05:15:39;0.50;52.50
17178;DHT22;8704;52.006;4.374;2023-01-25T05:18:09;0.40;44.40
17178;DHT22;8704;52.006;4.374;2023-01-25T05:20:37;0.50;46.60
17178;DHT22;8704;52.006;4.374;2023-01-25T05:23:05;1.10;42.70
17178;DHT22;8704;52.006;4.374;2023-01-25T05:25:34;1.20;55.30
17178;DHT22;8704;52.006;4.374;2023-01-25T05:28:19;0.40;72.10
17178;DHT22;8704;52.006;4.374;2023-01-25T05:30:47;0.40;68.40
17178;DHT22;8704;52.006;4.374;2023-01-25T05:33:17;0.40;50.90
17178;DHT22;8704;52.006;4.374;2023-01-25T05:35:45;0.40;62.30
17178;DHT22;8704;52.006;4.374;2023-01-25T05:38:13;0.40;56.70
17178;DHT22;8704;52.006;4.374;2023-01-25T05:40:41;0.40;91.80
17178;DHT22;8704;52.006;4.374;2023-01-25T05:43:09;0.40;77.20
17178;DHT22;8704;52.006;4.374;2023-01-25T05:45:37;0.40;55.90
17178;DHT22;8704;52.006;4.374;2023-01-25T05:48:07;0.40;73.40
17178;DHT22;8704;52.006;4.374;2023-01-25T05:50:36;0.40;63.80
17178;DHT22;8704;52.006;4.374;2023-01-25T05:53:04;0.40;58.50
17178;DHT22;8704;52.006;4.374;2023-01-25T05:55:34;0.40;53.00
17178;DHT22;8704;52.006;4.374;2023-01-25T05:58:02;0.40;51.40
17178;DHT22;8704;52.006;4.374;2023-01-25T06:00:30;0.40;48.80
17178;DHT22;8704;52.006;4.374;2023-01-25T06:02:59;1.40;44.80
17178;DHT22;8704;52.006;4.374;2023-01-25T06:05:28;1.00;64.70
17178;DHT22;8704;52.006;4.374;2023-01-25T06:07:58;0.40;76.50
17178;DHT22;8704;52.006;4.374;2023-01-25T06:10:26;0.40;92.50
17178;DHT22;8704;52.006;4.374;2023-01-25T06:12:58;0.40;87.30
17178;DHT22;8704;52.006;4.374;2023-01-25T06:15:26;0.40;80.20
17178;DHT22;8704;52.006;4.374;2023-01-25T06:17:55;0.40;96.20
17178;DHT22;8704;52.006;4.374;2023-01-25T06:20:23;0.40;80.30
17178;DHT22;8704;52.006;4.374;2023-01-25T06:22:51;0.50;74.30
17178;DHT22;8704;52.006;4.374;2023-01-25T06:25:21;0.40;71.80
17178;DHT22;8704;52.006;4.374;2023-01-25T06:27:49;0.50;84.20
17178;DHT22;8704;52.006;4.374;2023-01-25T06:30:17;0.50;86.90
17178;DHT22;8704;52.006;4.374;2023-01-25T06:32:45;1.30;79.60
17178;DHT22;8704;52.006;4.374;2023-01-25T06:35:13;0.40;62.40
17178;DHT22;8704;52.006;4.374;2023-01-25T06:37:41;1.70;55.40
17178;DHT22;8704;52.006;4.374;2023-01-25T06:40:11;1.00;44.60
17178;DHT22;8704;52.006;4.374;2023-01-25T06:42:40;0.40;46.50
17178;DHT22;8704;52.006;4.374;2023-01-25T06:45:09;0.50;60.20
17178;DHT22;8704;52.006;4.374;2023-01-25T06:47:38;0.50;65.90
17178;DHT22;8704;52.006;4.374;2023-01-25T06:50:07;0.50;58.50
17178;DHT22;8704;52.006;4.374;2023-01-25T06:52:35;0.50;65.00
17178;DHT22;8704;52.006;4.374;2023-01-25T06:55:04;0.40;60.00
17178;DHT22;8704;52.006;4.374;2023-01-25T06:57:33;0.40;56.20
17178;DHT22;8704;52.006;4.374;2023-01-25T07:00:04;0.50;58.20
17178;DHT22;8704;52.006;4.374;2023-01-25T07:02:32;0.50;76.80
17178;DHT22;8704;52.006;4.374;2023-01-25T07:05:00;0.50;73.80
17178;DHT22;8704;52.006;4.374;2023-01-25T07:07:28;0.50;56.50
17178;DHT22;8704;52.006;4.374;2023-01-25T07:09:56;1.20;76.20
17178;DHT22;8704;52.006;4.374;2023-01-25T07:12:27;0.50;80.00
17178;DHT22;8704;52.006;4.374;2023-01-25T07:14:55;0.50;77.70
17178;DHT22;8704;52.006;4.374;2023-01-25T07:17:25;0.80;62.30
17178;DHT22;8704;52.006;4.374;2023-01-25T07:19:53;0.60;54.30
17178;DHT22;8704;52.006;4.374;2023-01-25T07:22:21;0.50;43.90
17178;DHT22;8704;52.006;4.374;2023-01-25T07:24:49;0.40;22.50
17178;DHT22;8704;52.006;4.374;2023-01-25T07:27:19;0.50;11.30
17178;DHT22;8704;52.006;4.374;2023-01-25T07:29:47;0.40;6.00
17178;DHT22;8704;52.006;4.374;2023-01-25T07:32:15;0.50;12.10
17178;DHT22;8704;52.006;4.374;2023-01-25T07:34:44;0.50;8.40
17178;DHT22;8704;52.006;4.374;2023-01-25T07:37:12;0.80;5.60
17178;DHT22;8704;52.006;4.374;2023-01-25T07:39:40;0.50;12.80
17178;DHT22;8704;52.006;4.374;2023-01-25T07:42:13;0.50;26.40
17178;DHT22;8704;52.006;4.374;2023-01-25T07:44:42;0.50;36.70
17178;DHT22;8704;52.006;4.374;2023-01-25T07:47:10;1.10;34.00
17178;DHT22;8704;52.006;4.374;2023-01-25T07:49:38;0.50;28.50
17178;DHT22;8704;52.006;4.374;2023-01-25T07:52:07;0.60;21.10
17178;DHT22;8704;52.006;4.374;2023-01-25T07:54:35;0.50;10.40
17178;DHT22;8704;52.006;4.374;2023-01-25T07:57:03;0.50;7.50
17178;DHT22;8704;52.006;4.374;2023-01-25T07:59:32;0.50;12.00
17178;DHT22;8704;52.006;4.374;2023-01-25T08:02:00;0.50;6.50
17178;DHT22;8704;52.006;4.374;2023-01-25T08:04:28;0.90;1.00
17178;DHT22;8704;52.006;4.374;2023-01-25T08:06:57;0.50;1.00
17178;DHT22;8704;52.006;4.374;2023-01-25T08:09:26;0.50;1.00
17178;DHT22;8704;52.006;4.374;2023-01-25T08:11:54;0.50;1.00
17178;DHT22;8704;52.006;4.374;2023-01-25T08:14:23;0.50;1.00
17178;DHT22;8704;52.006;4.374;2023-01-25T08:16:51;0.50;1.00
17178;DHT22;8704;52.006;4.374;2023-01-25T08:19:19;0.50;1.00
17178;DHT22;8704;52.006;4.374;2023-01-25T08:21:47;0.80;1.00
17178;DHT22;8704;52.006;4.374;2023-01-25T08:24:16;0.50;1.00
17178;DHT22;8704;52.006;4.374;2023-01-25T08:26:47;0.50;1.00
17178;DHT22;8704;52.006;4.374;2023-01-25T08:29:15;0.50;1.00
17178;DHT22;8704;52.006;4.374;2023-01-25T08:31:43;0.50;1.00
17178;DHT22;8704;52.006;4.374;2023-01-25T08:34:13;1.10;1.00
17178;DHT22;8704;52.006;4.374;2023-01-25T08:36:41;0.60;1.00
17178;DHT22;8704;52.006;4.374;2023-01-25T08:39:11;0.60;1.00
17178;DHT22;8704;52.006;4.374;2023-01-25T08:41:39;0.60;1.00
17178;DHT22;8704;52.006;4.374;2023-01-25T08:44:09;0.60;1.00
17178;DHT22;8704;52.006;4.374;2023-01-25T08:46:38;0.60;1.00
17178;DHT22;8704;52.006;4.374;2023-01-25T08:49:06;0.80;1.00
17178;DHT22;8704;52.006;4.374;2023-01-25T08:51:36;0.60;1.00
17178;DHT22;8704;52.006;4.374;2023-01-25T08:54:05;1.10;1.00
17178;DHT22;8704;52.006;4.374;2023-01-25T08:56:35;0.60;1.00
17178;DHT22;8704;52.006;4.374;2023-01-25T08:59:03;0.70;1.00
17178;DHT22;8704;52.006;4.374;2023-01-25T09:01:33;0.60;1.00
17178;DHT22;8704;52.006;4.374;2023-01-25T09:04:01;0.60;1.00
17178;DHT22;8704;52.006;4.374;2023-01-25T09:06:30;0.60;1.00
17178;DHT22;8704;52.006;4.374;2023-01-25T09:08:58;0.60;1.00
17178;DHT22;8704;52.006;4.374;2023-01-25T09:11:26;1.10;1.00
17178;DHT22;8704;52.006;4.374;2023-01-25T09:13:54;0.60;1.00
17178;DHT22;8704;52.006;4.374;2023-01-25T09:16:24;0.60;1.00
17178;DHT22;8704;52.006;4.374;2023-01-25T09:18:57;0.60;1.00
17178;DHT22;8704;52.006;4.374;2023-01-25T09:21:26;0.60;1.00
17178;DHT22;8704;52.006;4.374;2023-01-25T09:23:54;1.00;1.00
17178;DHT22;8704;52.006;4.374;2023-01-25T09:26:33;0.60;1.00
17178;DHT22;8704;52.006;4.374;2023-01-25T09:29:02;1.30;1.00
17178;DHT22;8704;52.006;4.374;2023-01-25T09:31:30;0.60;1.00
17178;DHT22;8704;52.006;4.374;2023-01-25T09:34:00;0.70;1.00
17178;DHT22;8704;52.006;4.374;2023-01-25T09:36:28;0.70;1.00
17178;DHT22;8704;52.006;4.374;2023-01-25T09:38:56;1.40;1.00
17178;DHT22;8704;52.006;4.374;2023-01-25T09:41:53;1.60;1.00
17178;DHT22;8704;52.006;4.374;2023-01-25T09:44:40;0.70;1.00
17178;DHT22;8704;52.006;4.374;2023-01-25T09:47:17;0.70;1.00
17178;DHT22;8704;52.006;4.374;2023-01-25T09:50:00;0.80;1.00
17178;DHT22;8704;52.006;4.374;2023-01-25T09:55:33;0.80;1.00
17178;DHT22;8704;52.006;4.374;2023-01-25T09:58:02;0.80;1.00
17178;DHT22;8704;52.006;4.374;2023-01-25T10:00:32;0.80;1.00
17178;DHT22;8704;52.006;4.374;2023-01-25T10:03:09;0.80;1.00
17178;DHT22;8704;52.006;4.374;2023-01-25T10:05:44;0.90;1.00
17178;DHT22;8704;52.006;4.374;2023-01-25T10:08:17;0.90;1.00
17178;DHT22;8704;52.006;4.374;2023-01-25T10:10:49;1.80;1.00
17178;DHT22;8704;52.006;4.374;2023-01-25T10:13:22;1.40;1.00
17178;DHT22;8704;52.006;4.374;2023-01-25T10:15:54;0.90;1.00
17178;DHT22;8704;52.006;4.374;2023-01-25T10:18:29;0.90;1.00
17178;DHT22;8704;52.006;4.374;2023-01-25T10:21:02;0.90;1.00
17178;DHT22;8704;52.006;4.374;2023-01-25T10:23:52;1.00;1.00
17178;DHT22;8704;52.006;4.374;2023-01-25T10:26:27;0.90;1.00
17178;DHT22;8704;52.006;4.374;2023-01-25T10:29:01;1.60;1.00
17178;DHT22;8704;52.006;4.374;2023-01-25T10:31:35;1.00;1.00
17178;DHT22;8704;52.006;4.374;2023-01-25T10:34:15;1.00;1.00
17178;DHT22;8704;52.006;4.374;2023-01-25T10:36:48;1.50;1.00
17178;DHT22;8704;52.006;4.374;2023-01-25T10:39:17;1.80;1.00
17178;DHT22;8704;52.006;4.374;2023-01-25T10:41:49;0.90;1.00
17178;DHT22;8704;52.006;4.374;2023-01-25T10:44:18;1.00;1.00
17178;DHT22;8704;52.006;4.374;2023-01-25T10:46:56;1.00;1.00
17178;DHT22;8704;52.006;4.374;2023-01-25T10:49:30;1.00;1.00
17178;DHT22;8704;52.006;4.374;2023-01-25T10:52:21;1.60;1.00
17178;DHT22;8704;52.006;4.374;2023-01-25T10:55:07;1.00;1.00
17178;DHT22;8704;52.006;4.374;2023-01-25T10:57:41;1.90;1.00
17178;DHT22;8704;52.006;4.374;2023-01-25T11:00:23;1.70;1.00
17178;DHT22;8704;52.006;4.374;2023-01-25T11:02:56;1.10;1.00
17178;DHT22;8704;52.006;4.374;2023-01-25T11:05:26;1.00;1.00
17178;DHT22;8704;52.006;4.374;2023-01-25T11:07:57;1.10;1.00
17178;DHT22;8704;52.006;4.374;2023-01-25T11:10:30;1.20;1.00
17178;DHT22;8704;52.006;4.374;2023-01-25T11:13:18;1.20;1.00
17178;DHT22;8704;52.006;4.374;2023-01-25T11:15:48;1.10;1.00
17178;DHT22;8704;52.006;4.374;2023-01-25T11:18:19;1.20;1.00
17178;DHT22;8704;52.006;4.374;2023-01-25T11:21:02;1.20;1.00
17178;DHT22;8704;52.006;4.374;2023-01-25T11:23:33;1.30;1.00
17178;DHT22;8704;52.006;4.374;2023-01-25T11:26:11;1.20;1.00
17178;DHT22;8704;52.006;4.374;2023-01-25T11:28:40;1.20;1.00
17178;DHT22;8704;52.006;4.374;2023-01-25T11:31:11;1.10;1.00
17178;DHT22;8704;52.006;4.374;2023-01-25T11:33:41;1.10;1.00
17178;DHT22;8704;52.006;4.374;2023-01-25T11:36:24;1.20;1.00
17178;DHT22;8704;52.006;4.374;2023-01-25T11:39:09;1.20;1.00
17178;DHT22;8704;52.006;4.374;2023-01-25T11:41:59;1.20;1.00
17178;DHT22;8704;52.006;4.374;2023-01-25T11:44:51;1.30;1.00
17178;DHT22;8704;52.006;4.374;2023-01-25T11:47:30;1.30;1.00
17178;DHT22;8704;52.006;4.374;2023-01-25T11:50:07;1.30;1.00
17178;DHT22;8704;52.006;4.374;2023-01-25T11:52:50;1.30;1.00
17178;DHT22;8704;52.006;4.374;2023-01-25T11:55:27;2.20;1.00
17178;DHT22;8704;52.006;4.374;2023-01-25T11:58:10;2.30;1.00
17178;DHT22;8704;52.006;4.374;2023-01-25T12:00:53;1.30;1.00
17178;DHT22;8704;52.006;4.374;2023-01-25T12:06:41;1.40;1.00
17178;DHT22;8704;52.006;4.374;2023-01-25T12:09:26;2.10;1.00
17178;DHT22;8704;52.006;4.374;2023-01-25T12:12:10;2.20;1.00
17178;DHT22;8704;52.006;4.374;2023-01-25T12:14:53;1.40;1.00
17178;DHT22;8704;52.006;4.374;2023-01-25T12:17:34;1.40;1.00
17178;DHT22;8704;52.006;4.374;2023-01-25T12:20:26;1.30;1.00
17178;DHT22;8704;52.006;4.374;2023-01-25T12:23:24;1.30;1.00
17178;DHT22;8704;52.006;4.374;2023-01-25T12:26:05;1.40;1.00
17178;DHT22;8704;52.006;4.374;2023-01-25T12:28:40;2.00;1.00
17178;DHT22;8704;52.006;4.374;2023-01-25T12:31:13;1.40;1.00
17178;DHT22;8704;52.006;4.374;2023-01-25T12:33:48;1.90;1.00
17178;DHT22;8704;52.006;4.374;2023-01-25T12:36:22;1.40;1.00
17178;DHT22;8704;52.006;4.374;2023-01-25T12:38:55;1.30;1.00
17178;DHT22;8704;52.006;4.374;2023-01-25T12:41:33;1.40;1.00
17178;DHT22;8704;52.006;4.374;2023-01-25T12:44:15;1.30;1.00
17178;DHT22;8704;52.006;4.374;2023-01-25T12:46:50;1.30;1.00
17178;DHT22;8704;52.006;4.374;2023-01-25T12:49:24;1.40;1.00
17178;DHT22;8704;52.006;4.374;2023-01-25T12:51:55;1.30;1.00
17178;DHT22;8704;52.006;4.374;2023-01-25T12:54:30;1.30;1.00
17178;DHT22;8704;52.006;4.374;2023-01-25T12:57:10;1.60;1.00
17178;DHT22;8704;52.006;4.374;2023-01-25T12:59:51;1.30;1.00
17178;DHT22;8704;52.006;4.374;2023-01-25T13:02:41;1.30;1.00
17178;DHT22;8704;52.006;4.374;2023-01-25T13:05:24;1.40;1.00
17178;DHT22;8704;52.006;4.374;2023-01-25T13:08:02;1.60;1.00
17178;DHT22;8704;52.006;4.374;2023-01-25T13:10:33;1.30;1.00
17178;DHT22;8704;52.006;4.374;2023-01-25T13:13:19;2.40;1.00
17178;DHT22;8704;52.006;4.374;2023-01-25T13:15:48;1.40;1.00
17178;DHT22;8704;52.006;4.374;2023-01-25T13:18:35;1.40;1.00
17178;DHT22;8704;52.006;4.374;2023-01-25T13:21:08;1.40;1.00
17178;DHT22;8704;52.006;4.374;2023-01-25T13:23:38;1.30;1.00
17178;DHT22;8704;52.006;4.374;2023-01-25T13:26:43;1.90;1.00
17178;DHT22;8704;52.006;4.374;2023-01-25T13:35:30;1.30;1.00
17178;DHT22;8704;52.006;4.374;2023-01-25T13:38:03;1.30;1.00
17178;DHT22;8704;52.006;4.374;2023-01-25T13:40:33;1.40;1.00
17178;DHT22;8704;52.006;4.374;2023-01-25T13:43:04;1.30;1.00
17178;DHT22;8704;52.006;4.374;2023-01-25T13:45:34;1.20;1.00
17178;DHT22;8704;52.006;4.374;2023-01-25T13:48:12;1.30;1.00
17178;DHT22;8704;52.006;4.374;2023-01-25T13:50:46;1.40;1.00
17178;DHT22;8704;52.006;4.374;2023-01-25T13:53:20;1.90;1.00
17178;DHT22;8704;52.006;4.374;2023-01-25T13:55:50;1.60;1.00
17178;DHT22;8704;52.006;4.374;2023-01-25T13:58:20;1.40;1.00
17178;DHT22;8704;52.006;4.374;2023-01-25T14:00:52;1.40;1.00
17178;DHT22;8704;52.006;4.374;2023-01-25T14:03:22;1.40;1.00
17178;DHT22;8704;52.006;4.374;2023-01-25T14:05:55;1.40;1.00
17178;DHT22;8704;52.006;4.374;2023-01-25T14:08:24;1.40;1.00
17178;DHT22;8704;52.006;4.374;2023-01-25T14:10:53;1.40;1.00
17178;DHT22;8704;52.006;4.374;2023-01-25T14:13:22;1.40;1.00
17178;DHT22;8704;52.006;4.374;2023-01-25T14:15:52;1.50;1.00
17178;DHT22;8704;52.006;4.374;2023-01-25T14:18:25;1.40;1.00
17178;DHT22;8704;52.006;4.374;2023-01-25T14:21:10;1.40;1.00
17178;DHT22;8704;52.006;4.374;2023-01-25T14:23:39;1.40;1.00
17178;DHT22;8704;52.006;4.374;2023-01-25T14:26:16;1.40;1.00
17178;DHT22;8704;52.006;4.374;2023-01-25T14:28:46;1.60;1.00
17178;DHT22;8704;52.006;4.374;2023-01-25T14:31:29;1.50;1.00
17178;DHT22;8704;52.006;4.374;2023-01-25T14:33:58;1.60;1.00
17178;DHT22;8704;52.006;4.374;2023-01-25T14:36:31;1.50;1.00
17178;DHT22;8704;52.006;4.374;2023-01-25T14:39:00;1.90;1.00
17178;DHT22;8704;52.006;4.374;2023-01-25T14:41:32;1.50;1.00
17178;DHT22;8704;52.006;4.374;2023-01-25T14:44:02;1.50;1.00
17178;DHT22;8704;52.006;4.374;2023-01-25T14:46:32;1.50;1.00
17178;DHT22;8704;52.006;4.374;2023-01-25T14:49:18;1.50;1.00
17178;DHT22;8704;52.006;4.374;2023-01-25T14:51:58;1.40;1.00
17178;DHT22;8704;52.006;4.374;2023-01-25T14:54:30;1.60;1.00
17178;DHT22;8704;52.006;4.374;2023-01-25T14:57:01;2.40;1.00
17178;DHT22;8704;52.006;4.374;2023-01-25T14:59:32;1.50;1.00
17178;DHT22;8704;52.006;4.374;2023-01-25T15:02:10;1.50;1.00
17178;DHT22;8704;52.006;4.374;2023-01-25T15:04:54;1.50;1.00
17178;DHT22;8704;52.006;4.374;2023-01-25T15:07:42;1.60;1.00
17178;DHT22;8704;52.006;4.374;2023-01-25T15:10:19;1.50;1.00
17178;DHT22;8704;52.006;4.374;2023-01-25T15:12:59;1.60;1.00
17178;DHT22;8704;52.006;4.374;2023-01-25T15:15:50;2.30;1.00
17178;DHT22;8704;52.006;4.374;2023-01-25T15:18:41;2.00;1.00
17178;DHT22;8704;52.006;4.374;2023-01-25T15:21:11;1.50;1.00
17178;DHT22;8704;52.006;4.374;2023-01-25T15:23:42;1.80;1.00
17178;DHT22;8704;52.006;4.374;2023-01-25T15:26:17;1.50;1.00
17178;DHT22;8704;52.006;4.374;2023-01-25T15:28:46;1.50;1.00
17178;DHT22;8704;52.006;4.374;2023-01-25T15:31:16;2.20;1.00
17178;DHT22;8704;52.006;4.374;2023-01-25T15:33:44;2.00;1.00
17178;DHT22;8704;52.006;4.374;2023-01-25T15:36:13;2.50;1.00
17178;DHT22;8704;52.006;4.374;2023-01-25T15:38:43;1.50;1.00
17178;DHT22;8704;52.006;4.374;2023-01-25T15:41:11;1.50;1.00
17178;DHT22;8704;52.006;4.374;2023-01-25T15:43:39;2.50;1.00
17178;DHT22;8704;52.006;4.374;2023-01-25T15:46:14;1.50;1.00
17178;DHT22;8704;52.006;4.374;2023-01-25T15:48:44;1.50;1.00
17178;DHT22;8704;52.006;4.374;2023-01-25T15:51:14;1.50;1.00
17178;DHT22;8704;52.006;4.374;2023-01-25T15:53:44;1.80;1.00
17178;DHT22;8704;52.006;4.374;2023-01-25T15:56:15;2.00;1.00
17178;DHT22;8704;52.006;4.374;2023-01-25T15:58:46;2.40;1.00
17178;DHT22;8704;52.006;4.374;2023-01-25T16:01:16;2.50;1.00
17178;DHT22;8704;52.006;4.374;2023-01-25T16:03:44;1.50;1.00
17178;DHT22;8704;52.006;4.374;2023-01-25T16:06:24;2.50;1.00
17178;DHT22;8704;52.006;4.374;2023-01-25T16:08:56;2.00;1.00
17178;DHT22;8704;52.006;4.374;2023-01-25T16:11:25;1.50;1.00
17178;DHT22;8704;52.006;4.374;2023-01-25T16:13:54;1.60;1.00
17178;DHT22;8704;52.006;4.374;2023-01-25T16:16:24;1.50;1.00
17178;DHT22;8704;52.006;4.374;2023-01-25T16:18:52;2.60;1.00
17178;DHT22;8704;52.006;4.374;2023-01-25T16:21:20;1.60;1.00
17178;DHT22;8704;52.006;4.374;2023-01-25T16:23:48;1.60;1.00
17178;DHT22;8704;52.006;4.374;2023-01-25T16:26:20;1.60;1.00
17178;DHT22;8704;52.006;4.374;2023-01-25T16:28:48;2.20;1.00
17178;DHT22;8704;52.006;4.374;2023-01-25T16:31:17;1.60;1.00
17178;DHT22;8704;52.006;4.374;2023-01-25T16:33:59;1.50;1.00
17178;DHT22;8704;52.006;4.374;2023-01-25T16:36:27;2.30;1.00
17178;DHT22;8704;52.006;4.374;2023-01-25T16:39:06;2.10;1.00
17178;DHT22;8704;52.006;4.374;2023-01-25T16:41:37;2.30;1.00
17178;DHT22;8704;52.006;4.374;2023-01-25T16:44:05;2.10;1.00
17178;DHT22;8704;52.006;4.374;2023-01-25T16:46:33;2.20;1.00
17178;DHT22;8704;52.006;4.374;2023-01-25T16:49:01;1.50;1.00
17178;DHT22;8704;52.006;4.374;2023-01-25T16:51:31;1.60;1.00